Terminal Aerodrome Forecast
Issued by NWS

Home | Current Version | Previous Version | Graphics & Text | Print | Product List | Glossary On
Versions: 1 2 3 4 5 6 7 8 9 10 11 12 13 14 15 16 17 18 19 20 21 22 23
136
FTUS43 KABR 221131
TAFATY
TAF
KATY 221131Z 2212/2312 VRB06KT P6SM SCT100 BKN200
     FM221700 30009KT P6SM BKN045
     FM221900 30012G19KT P6SM BKN040
     FM222300 30015G23KT P6SM BKN020
     FM230600 36011KT P6SM BKN008=

USA.gov is the U.S. government's official web portal to all federal, state and local government web resources and services.